Time;durP1;ratioP1;P1;durP2;ratioP2;P2;SDS_P1;SDS_P2;PMS_P1;PMS_P2;Temp;Humidity;BMP_temperature;BMP_pressure;BME280_temperature;BME280_humidity;BME280_pressure;Samples;Min_cycle;Max_cycle;Signal;HPM_P1;HPM_P2
2022/05/26 00:00:27;;;;;;;3.50;2.45;;;;;;;9.23;100.00;98642.09;2585333;28;20061;-90
2022/05/26 00:01:52;;;;;;;2.50;2.30;;;;;;;9.19;100.00;98641.28;2584957;28;20069;-93
2022/05/26 00:03:07;;;;;;;3.10;2.42;;;;;;;9.19;100.00;98639.50;2567993;28;20055;-91
2022/05/26 00:04:23;;;;;;;4.22;2.25;;;;;;;9.19;100.00;98636.06;2571913;28;20511;-91
2022/05/26 00:05:39;;;;;;;3.22;2.42;;;;;;;9.16;100.00;98636.13;2587861;28;20058;-91
2022/05/26 00:06:55;;;;;;;4.40;1.85;;;;;;;9.12;100.00;98637.94;2589106;28;20089;-92
2022/05/26 00:08:11;;;;;;;3.10;2.08;;;;;;;9.11;100.00;98644.03;2589283;28;20559;-90
2022/05/26 00:09:26;;;;;;;2.88;2.25;;;;;;;9.06;100.00;98640.63;2580294;28;20058;-92
2022/05/26 00:10:42;;;;;;;2.80;2.47;;;;;;;8.99;100.00;98646.88;2577456;28;20050;-92
2022/05/26 00:11:58;;;;;;;2.67;2.30;;;;;;;8.96;100.00;98644.34;2566362;28;20053;-90
2022/05/26 00:13:13;;;;;;;4.38;2.25;;;;;;;8.93;100.00;98649.59;2561940;28;20518;-90
2022/05/26 00:14:30;;;;;;;5.57;4.40;;;;;;;8.76;100.00;98646.41;2572786;28;20565;-91
2022/05/26 00:15:45;;;;;;;2.95;2.65;;;;;;;8.70;100.00;98645.66;2578788;28;20057;-91
2022/05/26 00:17:01;;;;;;;4.05;2.83;;;;;;;8.68;100.00;98642.22;2578576;28;20568;-92
2022/05/26 00:18:17;;;;;;;4.10;3.22;;;;;;;8.67;100.00;98648.31;2579284;28;20082;-91
2022/05/26 00:19:33;;;;;;;2.40;2.20;;;;;;;8.69;100.00;98647.38;2579266;28;20055;-90
2022/05/26 00:20:49;;;;;;;5.20;3.10;;;;;;;8.80;100.00;98649.81;2578686;28;21012;-94
2022/05/26 00:22:04;;;;;;;2.90;2.20;;;;;;;8.74;100.00;98653.41;2578574;28;20137;-91
2022/05/26 00:23:20;;;;;;;4.50;2.28;;;;;;;8.71;100.00;98655.19;2578887;28;20539;-91
2022/05/26 00:24:35;;;;;;;2.53;2.30;;;;;;;8.73;100.00;98645.59;2578549;28;20559;-90
2022/05/26 00:25:51;;;;;;;3.83;2.22;;;;;;;8.64;100.00;98650.94;2578529;28;20085;-90
2022/05/26 00:27:07;;;;;;;4.63;2.35;;;;;;;8.57;100.00;98648.47;2579793;28;20051;-92
2022/05/26 00:28:22;;;;;;;2.95;2.55;;;;;;;8.59;100.00;98653.63;2583090;28;20105;-92
2022/05/26 00:29:38;;;;;;;3.25;2.55;;;;;;;8.50;100.00;98649.44;2570428;28;20054;-90
2022/05/26 00:30:54;;;;;;;4.43;2.60;;;;;;;8.45;100.00;98652.09;2573946;28;20072;-91
2022/05/26 00:32:09;;;;;;;4.05;2.65;;;;;;;8.44;100.00;98658.19;2580078;28;20093;-90
2022/05/26 00:33:25;;;;;;;3.50;2.75;;;;;;;8.49;100.00;98655.50;2579248;28;20054;-90
2022/05/26 00:34:41;;;;;;;4.00;2.60;;;;;;;8.51;100.00;98653.75;2578728;28;20190;-91
2022/05/26 00:36:02;;;;;;;3.95;2.70;;;;;;;8.57;100.00;98650.19;2578841;28;20410;-90
2022/05/26 00:37:18;;;;;;;3.70;2.83;;;;;;;8.65;100.00;98657.88;2578919;28;20481;-91
2022/05/26 00:38:34;;;;;;;4.03;2.50;;;;;;;8.67;100.00;98657.00;2578930;28;20057;-91
2022/05/26 00:39:49;;;;;;;5.70;2.60;;;;;;;8.70;100.00;98653.47;2579016;28;20073;-91
2022/05/26 00:41:09;;;;;;;4.32;2.60;;;;;;;8.71;100.00;98660.41;2579476;28;20061;-91
2022/05/26 00:42:24;;;;;;;3.15;2.65;;;;;;;8.69;100.00;98665.66;2578839;28;20093;-90
2022/05/26 00:43:45;;;;;;;3.42;2.28;;;;;;;8.68;100.00;98663.09;2579279;28;20505;-91
2022/05/26 00:45:00;;;;;;;4.85;2.45;;;;;;;8.59;100.00;98656.25;2578505;28;20086;-91
2022/05/26 00:46:26;;;;;;;4.28;2.63;;;;;;;8.50;100.00;98661.59;2578865;28;20520;-92
2022/05/26 00:47:45;;;;;;;3.42;2.40;;;;;;;8.49;100.00;98660.72;2579494;28;20081;-90
2022/05/26 00:49:01;;;;;;;3.30;2.72;;;;;;;8.37;100.00;98658.31;2579285;28;20051;-90
2022/05/26 00:50:21;;;;;;;4.18;2.70;;;;;;;8.38;100.00;98660.91;2578620;28;20058;-90
2022/05/26 00:51:38;;;;;;;3.25;2.30;;;;;;;8.33;100.00;98662.72;2578888;28;20146;-90
2022/05/26 00:53:12;;;;;;;3.97;2.67;;;;;;;8.30;100.00;98666.25;2583481;28;20474;-92
2022/05/26 00:54:27;;;;;;;3.97;2.40;;;;;;;8.36;100.00;98667.03;2577341;28;20172;-92
2022/05/26 00:55:49;;;;;;;5.03;2.53;;;;;;;8.37;100.00;98668.75;2577946;28;20540;-90
2022/05/26 00:57:10;;;;;;;2.85;2.58;;;;;;;8.30;100.00;98660.16;2578082;28;20042;-92
2022/05/26 00:58:30;;;;;;;3.00;2.53;;;;;;;8.24;100.00;98665.47;2578748;28;20562;-91
2022/05/26 00:59:56;;;;;;;4.55;2.53;;;;;;;8.27;100.00;98666.28;2579171;28;20050;-91
2022/05/26 01:01:12;;;;;;;4.22;2.50;;;;;;;8.23;100.00;98664.59;2579779;28;20050;-92
2022/05/26 01:02:34;;;;;;;9.38;3.00;;;;;;;8.29;100.00;98666.25;2580041;28;20061;-90
2022/05/26 01:04:01;;;;;;;3.22;2.25;;;;;;;8.30;100.00;98671.47;2580143;28;20062;-91
2022/05/26 01:05:27;;;;;;;2.35;2.15;;;;;;;8.30;100.00;98666.25;2579201;28;20108;-91
2022/05/26 01:07:11;;;;;;;4.88;2.22;;;;;;;8.28;100.00;98659.31;2579264;28;20454;-92
2022/05/26 01:08:45;;;;;;;;;;;;;;;8.23;100.00;98663.75;2580955;28;20046;-92
2022/05/26 01:10:00;;;;;;;2.88;2.25;;;;;;;8.18;100.00;98664.69;2578952;28;19921;-92
2022/05/26 01:11:16;;;;;;;2.50;2.30;;;;;;;8.19;100.00;98668.13;2578540;28;20920;-91
2022/05/26 01:12:32;;;;;;;4.80;2.30;;;;;;;8.12;100.00;98666.53;2579068;28;20065;-92
2022/05/26 01:13:53;;;;;;;2.85;2.10;;;;;;;8.06;100.00;98673.53;2578753;28;20046;-92
2022/05/26 01:15:21;;;;;;;3.40;2.28;;;;;;;8.06;100.00;98670.91;2578799;28;21043;-91
2022/05/26 01:17:08;;;;;;;2.50;2.30;;;;;;;8.01;100.00;98674.47;2579094;28;20049;-91
2022/05/26 01:18:49;;;;;;;5.40;2.83;;;;;;;8.01;100.00;98677.06;2578717;28;20054;-91
2022/05/26 01:20:18;;;;;;;2.95;2.67;;;;;;;7.98;100.00;98674.53;2579193;28;20576;-94
2022/05/26 01:21:44;;;;;;;3.03;2.70;;;;;;;7.98;100.00;98675.41;2579184;28;20055;-91
2022/05/26 01:23:30;;;;;;;5.85;2.75;;;;;;;8.00;100.00;98677.97;2579425;28;20046;-91
2022/05/26 01:25:20;;;;;;;4.50;2.75;;;;;;;8.02;100.00;98670.97;2577776;28;20720;-92
2022/05/26 01:26:35;;;;;;;8.25;2.70;;;;;;;7.99;100.00;98671.91;2579199;28;20050;-91
2022/05/26 01:28:31;;;;;;;3.13;2.63;;;;;;;7.97;100.00;98673.69;2575116;28;20050;-90
2022/05/26 01:30:05;;;;;;;2.42;2.22;;;;;;;7.92;100.00;98675.47;2579851;28;20054;-95
2022/05/26 01:31:47;;;;;;;2.60;2.40;;;;;;;7.85;100.00;98677.28;2580696;28;20050;-93
2022/05/26 01:33:28;;;;;;;3.60;2.28;;;;;;;7.87;100.00;98672.06;2580942;28;20165;-94
2022/05/26 01:34:59;;;;;;;2.80;2.25;;;;;;;7.85;100.00;98668.63;2581044;28;20137;-91
2022/05/26 01:36:36;;;;;;;7.18;2.47;;;;;;;7.80;100.00;98670.41;2580408;28;20081;-92
2022/05/26 01:38:21;;;;;;;2.50;2.10;;;;;;;7.82;100.00;98673.84;2580242;28;20464;-91
2022/05/26 01:40:10;;;;;;;2.40;2.20;;;;;;;7.83;100.00;98671.25;2582005;28;20053;-92
2022/05/26 01:41:32;;;;;;;3.47;2.58;;;;;;;7.86;100.00;98672.94;2583080;28;20476;-89
2022/05/26 01:43:15;;;;;;;3.85;2.83;;;;;;;7.84;100.00;98674.72;2582671;28;20043;-91
2022/05/26 01:45:01;;;;;;;3.70;2.67;;;;;;;7.83;100.00;98676.44;2582553;28;20485;-91
2022/05/26 01:46:32;;;;;;;2.72;2.33;;;;;;;7.83;100.00;98673.84;2581489;28;20050;-90
2022/05/26 01:48:14;;;;;;;4.35;2.50;;;;;;;7.88;100.00;98676.41;2583328;28;20058;-90
2022/05/26 01:49:36;;;;;;;3.25;2.53;;;;;;;7.88;100.00;98673.78;2582855;28;20112;-91
2022/05/26 01:51:09;;;;;;;3.15;2.53;;;;;;;7.91;100.00;98672.00;2582940;28;20046;-91
2022/05/26 01:53:01;;;;;;;6.25;2.75;;;;;;;7.97;100.00;98675.41;2582849;28;20121;-90
2022/05/26 01:54:29;;;;;;;6.30;2.58;;;;;;;8.01;100.00;98669.25;2572569;28;20508;-92
2022/05/26 01:56:03;;;;;;;2.58;2.38;;;;;;;8.03;100.00;98668.38;2580657;28;20054;-90
2022/05/26 01:57:29;;;;;;;2.67;2.45;;;;;;;8.06;100.00;98672.69;2579351;28;20060;-90
2022/05/26 01:59:06;;;;;;;2.90;2.60;;;;;;;8.06;100.00;98673.53;2578614;28;20052;-90
2022/05/26 02:00:22;;;;;;;2.97;2.63;;;;;;;8.03;100.00;98672.69;2578584;28;20054;-92
2022/05/26 02:01:42;;;;;;;6.07;2.55;;;;;;;8.04;100.00;98664.03;2567849;28;20057;-91
2022/05/26 02:03:27;;;;;;;4.30;2.67;;;;;;;8.11;100.00;98670.00;2572319;28;20057;-92
2022/05/26 02:04:50;;;;;;;5.05;2.60;;;;;;;8.05;100.00;98670.97;2577098;28;20588;-91
2022/05/26 02:06:22;;;;;;;3.13;2.65;;;;;;;8.03;100.00;98668.38;2578270;28;20451;-91
2022/05/26 02:07:48;;;;;;;3.15;2.78;;;;;;;8.01;100.00;98664.91;2577925;28;20057;-92
2022/05/26 02:09:14;;;;;;;3.10;2.60;;;;;;;8.00;100.00;98668.41;2578313;28;20321;-92
2022/05/26 02:10:38;;;;;;;4.80;2.60;;;;;;;7.91;100.00;98672.00;2579049;28;20100;-91
2022/05/26 02:12:03;;;;;;;3.80;2.53;;;;;;;7.85;100.00;98666.03;2579469;28;20051;-92
2022/05/26 02:13:38;;;;;;;3.92;2.50;;;;;;;7.82;100.00;98666.91;2580358;28;20054;-91
2022/05/26 02:14:59;;;;;;;2.78;2.58;;;;;;;7.80;100.00;98667.81;2578417;28;20046;-90
2022/05/26 02:16:25;;;;;;;2.92;2.55;;;;;;;7.76;100.00;98672.22;2577945;28;20195;-91
2022/05/26 02:18:09;;;;;;;3.28;2.65;;;;;;;7.75;100.00;98667.84;2578640;28;20061;-90
2022/05/26 02:19:43;;;;;;;3.47;2.72;;;;;;;7.68;100.00;98677.50;2570703;28;20050;-91
2022/05/26 02:21:05;;;;;;;3.58;2.78;;;;;;;7.74;100.00;98674.84;2579482;28;20050;-91
2022/05/26 02:22:30;;;;;;;3.00;2.55;;;;;;;7.74;100.00;98672.22;2578601;28;20056;-90
2022/05/26 02:24:10;;;;;;;3.05;2.80;;;;;;;7.75;100.00;98676.56;2579567;28;20058;-91
2022/05/26 02:25:26;;;;;;;4.53;2.58;;;;;;;7.78;100.00;98671.28;2579214;28;20061;-92
2022/05/26 02:26:42;;;;;;;3.60;2.63;;;;;;;7.80;100.00;98676.50;2568828;28;20051;-91
2022/05/26 02:27:57;;;;;;;2.85;2.53;;;;;;;7.66;100.00;98670.59;2562282;28;20083;-91
2022/05/26 02:30:48;;;;;;;4.05;2.30;;;;;;;7.51;100.00;98680.31;2578600;28;20061;-91
2022/05/26 02:32:07;;;;;;;3.63;2.60;;;;;;;7.49;100.00;98680.34;2578860;28;20590;-91
2022/05/26 02:33:22;;;;;;;8.45;2.42;;;;;;;7.44;100.00;98676.06;2579398;28;20607;-92
2022/05/26 02:34:41;;;;;;;5.50;2.50;;;;;;;7.41;100.00;98679.56;2580360;28;20042;-91
2022/05/26 02:35:58;;;;;;;2.53;2.25;;;;;;;7.37;100.00;98677.88;2581040;28;20423;-91
2022/05/26 02:37:14;;;;;;;2.70;2.40;;;;;;;7.37;100.00;98682.22;2580971;28;20145;-90
2022/05/26 02:38:30;;;;;;;3.03;2.35;;;;;;;7.36;100.00;98676.16;2585749;28;20070;-91
2022/05/26 02:39:45;;;;;;;3.03;2.50;;;;;;;7.40;100.00;98672.63;2586732;28;20050;-91
2022/05/26 02:41:01;;;;;;;3.95;2.78;;;;;;;7.42;100.00;98681.31;2585687;28;20054;-92
2022/05/26 02:42:18;;;;;;;4.35;2.78;;;;;;;7.33;100.00;98684.00;2584561;28;20046;-90
2022/05/26 02:43:34;;;;;;;2.53;2.15;;;;;;;7.24;100.00;98674.53;2578841;28;20437;-90
2022/05/26 02:44:51;;;;;;;4.55;2.58;;;;;;;7.17;100.00;98681.56;2578598;28;20456;-90
2022/05/26 02:46:37;;;;;;;2.63;2.40;;;;;;;7.22;100.00;98676.31;2586531;28;20110;-91
2022/05/26 02:48:11;;;;;;;2.80;2.50;;;;;;;7.16;100.00;98684.16;2586608;28;20050;-91
2022/05/26 02:50:04;;;;;;;2.60;2.40;;;;;;;7.15;100.00;98683.31;2583823;28;20141;-90
2022/05/26 02:51:41;;;;;;;3.90;2.53;;;;;;;7.18;100.00;98682.41;2577495;28;20047;-91
2022/05/26 02:53:12;;;;;;;2.72;2.40;;;;;;;7.17;100.00;98685.88;2577947;28;20468;-92
2022/05/26 02:54:51;;;;;;;3.08;2.53;;;;;;;7.10;100.00;98679.88;2577813;28;20572;-91
2022/05/26 02:56:15;;;;;;;3.03;2.80;;;;;;;7.10;100.00;98679.88;2577751;28;20512;-92
2022/05/26 02:57:40;;;;;;;2.85;2.55;;;;;;;7.11;100.00;98688.56;2579596;28;20101;-90
2022/05/26 02:59:11;;;;;;;4.07;2.40;;;;;;;7.12;100.00;98688.53;2578269;28;20057;-91
2022/05/26 03:01:03;;;;;;;3.47;2.83;;;;;;;7.08;100.00;98676.44;2576726;28;20445;-91
2022/05/26 03:02:32;;;;;;;3.47;2.85;;;;;;;7.04;100.00;98685.16;2577910;28;20060;-90
2022/05/26 03:03:52;;;;;;;3.80;2.78;;;;;;;7.09;100.00;98685.97;2579214;28;20065;-93
2022/05/26 03:05:21;;;;;;;3.15;2.42;;;;;;;7.07;100.00;98685.13;2578527;28;20402;-91
2022/05/26 03:06:45;;;;;;;5.18;2.70;;;;;;;7.04;100.00;98680.81;2577737;28;20054;-90
2022/05/26 03:08:04;;;;;;;3.05;2.75;;;;;;;7.05;100.00;98690.38;2579869;28;20050;-90
2022/05/26 03:09:20;;;;;;;3.42;2.70;;;;;;;7.03;100.00;98693.84;2579681;28;20497;-90
2022/05/26 03:10:36;;;;;;;4.25;2.60;;;;;;;7.06;100.00;98692.09;2579489;28;20050;-89
2022/05/26 03:11:57;;;;;;;4.43;2.38;;;;;;;7.09;100.00;98693.78;2578185;28;20782;-90
2022/05/26 03:13:12;;;;;;;4.30;2.70;;;;;;;7.09;100.00;98690.34;2578003;28;20047;-89
2022/05/26 03:14:28;;;;;;;4.40;2.70;;;;;;;7.11;100.00;98692.03;2577391;28;20819;-89
2022/05/26 03:15:44;;;;;;;5.57;2.90;;;;;;;7.10;100.00;98692.91;2567458;28;20050;-92
2022/05/26 03:16:59;;;;;;;3.03;2.63;;;;;;;7.05;100.00;98692.09;2571293;28;20153;-89
2022/05/26 03:18:15;;;;;;;3.83;2.65;;;;;;;7.02;100.00;98689.53;2578534;28;20487;-90
2022/05/26 03:19:31;;;;;;;4.07;2.63;;;;;;;6.97;100.00;98691.28;2578415;28;20086;-89
2022/05/26 03:20:46;;;;;;;2.70;2.50;;;;;;;6.93;100.00;98682.66;2578234;28;20050;-91
2022/05/26 03:22:02;;;;;;;3.78;2.75;;;;;;;6.93;100.00;98680.06;2577894;28;20054;-90
2022/05/26 03:23:17;;;;;;;3.40;2.60;;;;;;;6.95;100.00;98686.13;2577398;28;20050;-89
2022/05/26 03:24:33;;;;;;;3.83;2.47;;;;;;;6.94;100.00;98684.41;2566357;28;20093;-89
2022/05/26 03:25:49;;;;;;;2.78;2.53;;;;;;;6.85;100.00;98695.75;2570471;28;20060;-89
2022/05/26 03:27:05;;;;;;;3.60;2.80;;;;;;;6.93;100.00;98687.88;2577257;28;20050;-89
2022/05/26 03:28:20;;;;;;;3.92;2.65;;;;;;;6.92;100.00;98688.75;2577767;28;20070;-89
2022/05/26 03:29:36;;;;;;;3.33;2.80;;;;;;;6.95;100.00;98685.25;2576937;28;20062;-89
2022/05/26 03:30:52;;;;;;;6.95;3.13;;;;;;;6.88;100.00;98694.84;2578688;28;20058;-89
2022/05/26 03:32:08;;;;;;;3.67;3.00;;;;;;;6.88;100.00;98687.91;2578436;28;20053;-88
2022/05/26 03:33:25;;;;;;;5.15;3.30;;;;;;;6.91;100.00;98690.47;2577742;28;20568;-89
2022/05/26 03:40:59;;;;;;;4.03;2.78;;;;;;;7.23;100.00;98680.63;2577016;28;20050;-89
2022/05/26 03:42:19;;;;;;;3.35;2.80;;;;;;;7.26;100.00;98675.38;2577301;28;20046;-89
2022/05/26 03:43:39;;;;;;;5.18;2.78;;;;;;;7.26;100.00;98683.19;2577216;28;20493;-91
2022/05/26 03:44:56;;;;;;;3.55;2.80;;;;;;;7.28;100.00;98678.84;2579466;28;20125;-89
2022/05/26 03:46:12;;;;;;;4.18;2.65;;;;;;;7.33;100.00;98682.28;2578168;28;20055;-89
2022/05/26 03:47:28;;;;;;;4.70;2.47;;;;;;;7.40;100.00;98680.44;2575482;28;20390;-86
2022/05/26 03:48:43;;;;;;;6.03;2.65;;;;;;;7.41;100.00;98676.97;2576801;28;20077;-87
2022/05/26 03:49:59;;;;;;;6.28;2.67;;;;;;;7.65;100.00;98680.16;2576330;28;20107;-88
2022/05/26 03:51:14;;;;;;;7.68;2.70;;;;;;;7.61;100.00;98674.13;2576894;28;20106;-86
2022/05/26 03:52:30;;;;;;;2.90;2.60;;;;;;;7.66;100.00;98678.41;2577414;28;20049;-87
2022/05/26 03:53:46;;;;;;;15.88;2.90;;;;;;;7.57;100.00;98682.84;2577541;28;20046;-86
2022/05/26 03:55:01;;;;;;;3.10;2.60;;;;;;;7.62;100.00;98672.38;2577577;28;20050;-87
2022/05/26 03:56:17;;;;;;;3.10;2.63;;;;;;;7.73;100.00;98685.25;2577257;28;20136;-90
2022/05/26 03:57:32;;;;;;;13.77;3.15;;;;;;;7.71;100.00;98681.81;2577367;28;20054;-87
2022/05/26 03:58:48;;;;;;;10.25;3.05;;;;;;;7.70;100.00;98685.31;2577459;28;20144;-87
2022/05/26 04:00:05;;;;;;;4.38;2.60;;;;;;;7.65;100.00;98677.53;2577128;28;20057;-85
2022/05/26 04:01:22;;;;;;;3.33;2.70;;;;;;;7.67;100.00;98688.81;2577010;28;20553;-86
2022/05/26 04:02:41;;;;;;;4.63;2.67;;;;;;;7.82;100.00;98682.56;2577077;28;20390;-88
2022/05/26 04:03:56;;;;;;;3.13;2.83;;;;;;;7.84;100.00;98679.94;2577358;28;20046;-88
2022/05/26 04:05:12;;;;;;;3.15;2.85;;;;;;;7.83;100.00;98680.81;2576847;28;20480;-90
2022/05/26 04:06:28;;;;;;;4.28;2.85;;;;;;;7.81;100.00;98687.78;2577248;28;20619;-87
2022/05/26 04:07:43;;;;;;;3.50;2.95;;;;;;;7.81;100.00;98686.03;2576766;28;20065;-87
2022/05/26 04:08:59;;;;;;;3.00;2.67;;;;;;;7.84;100.00;98698.19;2577242;28;20073;-91
2022/05/26 04:10:15;;;;;;;4.00;3.30;;;;;;;7.88;100.00;98685.06;2579542;28;20073;-91
2022/05/26 04:11:31;;;;;;;4.07;3.15;;;;;;;7.94;100.00;98689.34;2580257;28;20060;-93
2022/05/26 04:12:46;;;;;;;5.72;4.32;;;;;;;8.00;100.00;98693.59;2579438;28;20054;-91
2022/05/26 04:14:02;;;;;;;3.70;3.15;;;;;;;8.04;100.00;98696.16;2566464;28;20084;-88
2022/05/26 04:15:19;;;;;;;4.40;3.22;;;;;;;8.11;100.00;98694.31;2571631;28;20069;-90
2022/05/26 04:16:35;;;;;;;4.07;3.30;;;;;;;8.15;100.00;98697.75;2578069;28;20392;-90
2022/05/26 04:17:51;;;;;;;3.72;3.17;;;;;;;8.19;100.00;98696.81;2578884;28;20133;-90
2022/05/26 04:19:07;;;;;;;4.07;3.67;;;;;;;8.26;100.00;98685.44;2578171;28;20069;-90
2022/05/26 04:20:23;;;;;;;4.65;3.40;;;;;;;8.39;100.00;98687.88;2578477;28;20050;-89
2022/05/26 04:22:14;;;;;;;4.72;3.17;;;;;;;8.47;100.00;98689.47;2578598;28;20510;-89
2022/05/26 04:23:14;;;;;;;3.92;3.30;;;;;;;8.66;100.00;98690.94;2578081;28;20077;-91
2022/05/26 04:24:29;;;;;;;2.90;2.60;;;;;;;8.73;100.00;98695.19;2578622;28;20524;-89
2022/05/26 04:25:45;;;;;;;3.20;2.90;;;;;;;8.81;100.00;98695.06;2579058;28;20053;-89
2022/05/26 04:27:01;;;;;;;4.25;2.58;;;;;;;8.86;100.00;98691.47;2578832;28;20132;-89
2022/05/26 04:28:17;;;;;;;5.30;2.90;;;;;;;8.81;100.00;98690.72;2579048;28;20058;-90
2022/05/26 04:29:33;;;;;;;6.13;2.97;;;;;;;8.82;100.00;98692.44;2578623;28;20057;-90
2022/05/26 04:30:49;;;;;;;4.38;3.15;;;;;;;8.86;100.00;98688.88;2579448;28;20477;-91
2022/05/26 04:32:06;;;;;;;7.30;2.72;;;;;;;8.87;100.00;98687.97;2580422;28;20121;-91
2022/05/26 04:33:22;;;;;;;4.07;3.08;;;;;;;8.95;100.00;98694.84;2579632;28;20038;-89
2022/05/26 04:34:39;;;;;;;2.88;2.67;;;;;;;8.98;100.00;98686.94;2579433;28;20050;-90
2022/05/26 04:35:54;;;;;;;4.05;3.63;;;;;;;9.00;100.00;98686.00;2576779;28;20085;-88
2022/05/26 04:37:10;;;;;;;5.53;3.08;;;;;;;9.04;100.00;98689.44;2578662;28;20050;-91
2022/05/26 04:38:26;;;;;;;4.60;3.05;;;;;;;9.15;100.00;98687.50;2578552;28;20046;-89
2022/05/26 04:39:41;;;;;;;4.22;3.33;;;;;;;9.22;100.00;98692.59;2577395;28;20050;-88
2022/05/26 04:40:58;;;;;;;3.97;3.03;;;;;;;9.26;100.00;98689.06;2577278;28;20057;-86
2022/05/26 04:42:14;;;;;;;3.40;3.00;;;;;;;9.31;100.00;98692.44;2576542;28;20493;-88
2022/05/26 04:43:33;;;;;;;3.28;2.80;;;;;;;9.38;100.00;98688.81;2576892;28;20089;-92
2022/05/26 04:44:49;;;;;;;3.15;2.60;;;;;;;9.44;100.00;98690.47;2565672;28;20050;-87
2022/05/26 04:46:05;;;;;;;3.17;2.72;;;;;;;9.55;100.00;98685.00;2570364;28;20413;-88
2022/05/26 04:47:21;;;;;;;3.58;2.40;;;;;;;9.54;100.00;98689.38;2576557;28;20053;-87
2022/05/26 04:48:37;;;;;;;2.80;2.50;;;;;;;9.54;100.00;98693.75;2576886;28;20124;-88
2022/05/26 04:49:52;;;;;;;3.15;2.45;;;;;;;9.55;100.00;98693.69;2578551;28;20089;-89
2022/05/26 04:51:08;;;;;;;4.18;2.78;;;;;;;9.66;100.00;98690.03;2576996;28;20101;-87
2022/05/26 04:52:25;;;;;;;2.83;2.60;;;;;;;9.78;100.00;98688.91;2577248;28;20078;-88
2022/05/26 04:53:40;;;;;;;3.25;2.65;;;;;;;9.78;100.00;98692.38;2576307;28;20156;-89
2022/05/26 04:54:56;;;;;;;3.42;2.72;;;;;;;9.69;100.00;98701.28;2576028;28;20053;-88
2022/05/26 04:56:11;;;;;;;4.03;3.10;;;;;;;9.67;100.00;98697.84;2576617;28;20081;-88
2022/05/26 04:57:27;;;;;;;2.90;2.60;;;;;;;9.74;100.00;98694.19;2577014;28;20500;-88
2022/05/26 04:58:43;;;;;;;3.75;2.78;;;;;;;9.75;100.00;98692.47;2577067;28;20100;-88
2022/05/26 04:59:58;;;;;;;5.20;2.78;;;;;;;9.82;100.00;98703.66;2576244;28;20137;-87
2022/05/26 05:01:15;;;;;;;3.40;2.70;;;;;;;9.82;100.00;98701.88;2577390;28;20449;-87
2022/05/26 05:02:31;;;;;;;2.70;2.28;;;;;;;9.82;100.00;98699.25;2577404;28;20054;-89
2022/05/26 05:03:47;;;;;;;3.20;2.72;;;;;;;9.89;100.00;98705.22;2577102;28;20046;-89
2022/05/26 05:05:04;;;;;;;2.92;2.55;;;;;;;9.92;100.00;98704.31;2577688;28;20425;-88
2022/05/26 05:06:20;;;;;;;2.85;2.55;;;;;;;9.91;100.00;98708.66;2577316;28;20113;-88
2022/05/26 05:07:36;;;;;;;3.45;2.72;;;;;;;9.98;100.00;98705.03;2577535;28;20054;-89
2022/05/26 05:08:51;;;;;;;4.20;2.90;;;;;;;10.00;100.00;98707.63;2577260;28;20502;-88
2022/05/26 05:10:07;;;;;;;3.85;2.58;;;;;;;10.09;100.00;98703.97;2577364;28;20092;-91
2022/05/26 05:11:23;;;;;;;3.55;2.80;;;;;;;10.18;100.00;98703.75;2577691;28;20500;-88
2022/05/26 05:12:40;;;;;;;2.60;2.40;;;;;;;10.20;100.00;98703.72;2577508;28;20050;-88
2022/05/26 05:13:55;;;;;;;4.47;2.80;;;;;;;10.23;100.00;98709.75;2578748;28;20046;-89
2022/05/26 05:15:26;;;;;;;3.42;2.83;;;;;;;10.34;100.00;98712.13;2577976;28;20141;-88
2022/05/26 05:16:42;;;;;;;3.75;2.63;;;;;;;10.40;100.00;98713.75;2578268;28;20109;-92
2022/05/26 05:17:58;;;;;;;5.32;3.08;;;;;;;10.39;100.00;98712.00;2579286;28;20465;-90
2022/05/26 05:19:17;;;;;;;2.63;2.42;;;;;;;10.41;100.00;98712.88;2580339;28;20054;-87
2022/05/26 05:20:35;;;;;;;3.45;2.63;;;;;;;10.51;100.00;98711.78;2584408;28;20799;-87
2022/05/26 05:22:09;;;;;;;3.65;2.70;;;;;;;10.58;100.00;98715.94;2584422;28;20053;-88
2022/05/26 05:23:26;;;;;;;3.35;2.33;;;;;;;10.70;100.00;98720.06;2584322;28;20066;-90
2022/05/26 05:24:49;;;;;;;2.97;2.70;;;;;;;10.77;100.00;98722.50;2579433;28;20108;-86
2022/05/26 05:26:12;;;;;;;2.35;2.15;;;;;;;10.80;100.00;98719.81;2577467;28;20105;-88
2022/05/26 05:28:04;;;;;;;4.00;2.45;;;;;;;10.81;100.00;98726.75;2580569;28;20080;-88
2022/05/26 05:29:25;;;;;;;3.80;2.40;;;;;;;10.83;100.00;98728.47;2580343;28;20053;-85
2022/05/26 05:30:55;;;;;;;4.72;2.90;;;;;;;10.91;100.00;98724.81;2588921;28;20042;-93
2022/05/26 05:32:21;;;;;;;3.85;2.58;;;;;;;10.96;100.00;98723.75;2577670;28;20078;-88
2022/05/26 05:33:46;;;;;;;2.85;2.55;;;;;;;10.98;100.00;98723.75;2576503;28;20639;-81
2022/05/26 05:35:10;;;;;;;3.13;2.80;;;;;;;11.05;100.00;98724.44;2575957;28;20054;-82
2022/05/26 05:36:29;;;;;;;4.10;3.10;;;;;;;11.14;100.00;98732.94;2576043;28;20054;-82
2022/05/26 05:37:45;;;;;;;4.57;2.92;;;;;;;11.26;100.00;98728.28;2576286;28;20417;-82
2022/05/26 05:39:03;;;;;;;3.10;2.70;;;;;;;11.39;100.00;98729.66;2576279;28;20050;-86
2022/05/26 05:40:19;;;;;;;2.15;1.90;;;;;;;11.46;100.00;98726.91;2576128;28;20085;-82
2022/05/26 05:41:35;;;;;;;2.53;1.90;;;;;;;11.53;96.93;98728.44;2576076;28;20076;-83
2022/05/26 05:42:51;;;;;;;3.13;1.88;;;;;;;11.58;94.48;98730.03;2576329;28;20046;-82
2022/05/26 05:44:07;;;;;;;2.78;2.22;;;;;;;11.62;92.40;98730.81;2576230;28;20050;-83
2022/05/26 05:45:22;;;;;;;3.25;1.90;;;;;;;11.70;93.69;98735.84;2576351;28;20118;-81
2022/05/26 05:46:53;;;;;;;2.40;2.20;;;;;;;11.78;94.22;98736.47;2576268;28;20054;-82
2022/05/26 05:48:09;;;;;;;4.00;2.40;;;;;;;11.85;94.72;98735.41;2576385;28;20409;-82
2022/05/26 05:49:27;;;;;;;3.22;2.22;;;;;;;11.86;95.02;98742.38;2576491;28;20050;-81
2022/05/26 05:50:43;;;;;;;5.35;2.25;;;;;;;11.93;94.38;98744.81;2576596;28;20815;-82
2022/05/26 05:52:11;;;;;;;4.47;2.28;;;;;;;11.95;94.35;98737.78;2576370;28;20069;-81
2022/05/26 05:53:27;;;;;;;3.25;2.47;;;;;;;12.03;95.03;98741.06;2576237;28;20050;-81
2022/05/26 05:54:43;;;;;;;3.92;2.40;;;;;;;12.06;94.54;98737.50;2576352;28;20054;-82
2022/05/26 05:55:58;;;;;;;2.58;2.28;;;;;;;12.08;94.78;98739.19;2576303;28;20466;-84
2022/05/26 05:57:14;;;;;;;3.30;2.50;;;;;;;12.13;94.74;98741.63;2575859;28;20054;-82
2022/05/26 05:58:30;;;;;;;4.30;2.25;;;;;;;12.26;94.29;98743.00;2575895;28;20078;-88
2022/05/26 05:59:45;;;;;;;3.03;2.38;;;;;;;12.33;93.41;98742.81;2576185;28;20050;-82
2022/05/26 06:01:01;;;;;;;2.90;2.20;;;;;;;12.40;92.00;98741.72;2576449;28;20473;-83
2022/05/26 06:02:16;;;;;;;5.57;2.58;;;;;;;12.43;92.11;98744.25;2576064;28;20050;-82
2022/05/26 06:03:33;;;;;;;4.63;2.30;;;;;;;12.48;93.31;98733.59;2576212;28;20476;-82
2022/05/26 06:04:49;;;;;;;2.00;1.70;;;;;;;12.48;87.91;98739.72;2576108;28;20073;-82
2022/05/26 06:06:07;;;;;;;3.63;2.20;;;;;;;12.54;88.62;98744.78;2575787;28;20095;-82
2022/05/26 06:07:23;;;;;;;2.30;2.10;;;;;;;12.64;88.60;98737.50;2576061;28;20093;-82
2022/05/26 06:08:38;;;;;;;4.13;1.75;;;;;;;12.74;87.88;98739.81;2576364;28;20074;-82
2022/05/26 06:09:54;;;;;;;2.67;1.98;;;;;;;12.79;88.08;98735.28;2575652;28;20061;-81
2022/05/26 06:11:09;;;;;;;2.20;2.00;;;;;;;12.83;88.93;98740.38;2575774;28;20158;-83
2022/05/26 06:12:25;;;;;;;2.00;1.90;;;;;;;12.96;89.95;98739.97;2576201;28;20069;-82
2022/05/26 06:13:41;;;;;;;3.53;2.22;;;;;;;13.09;89.23;98733.38;2576376;28;20081;-82
2022/05/26 06:14:56;;;;;;;4.35;2.13;;;;;;;13.16;88.20;98739.28;2576263;28;20042;-81
2022/05/26 06:16:13;;;;;;;3.03;1.70;;;;;;;13.34;87.42;98742.19;2576202;28;20149;-82
2022/05/26 06:17:28;;;;;;;2.85;1.90;;;;;;;13.42;86.99;98738.41;2576160;28;20050;-80
2022/05/26 06:18:45;;;;;;;6.88;1.77;;;;;;;13.51;86.04;98734.63;2575870;28;20355;-81
2022/05/26 06:20:02;;;;;;;3.53;1.70;;;;;;;13.66;83.80;98737.63;2575907;28;20057;-81
2022/05/26 06:21:18;;;;;;;3.60;1.55;;;;;;;13.72;82.30;98739.19;2575762;28;20073;-85
2022/05/26 06:22:37;;;;;;;2.20;1.60;;;;;;;13.90;83.15;98735.88;2576166;28;20058;-82
2022/05/26 06:23:56;;;;;;;3.58;1.63;;;;;;;14.04;82.63;98735.38;2576094;28;20050;-82
2022/05/26 06:25:15;;;;;;;7.05;1.80;;;;;;;14.08;82.03;98733.47;2576000;28;20038;-82
2022/05/26 06:26:30;;;;;;;3.70;1.80;;;;;;;14.12;83.51;98735.09;2575869;28;20053;-82
2022/05/26 06:30:55;;;;;;;2.78;1.50;;;;;;;14.32;80.18;98738.72;2576044;28;20579;-82